sensor_id;sensor_type;location;lat;lon;timestamp;P1;durP1;ratioP1;P2;durP2;ratioP2
74492;SDS011;62978;51.094;-115.362;2022-08-21T00:01:40;7.40;;;6.00;;
74492;SDS011;62978;51.094;-115.362;2022-08-21T00:04:21;9.00;;;5.90;;
74492;SDS011;62978;51.094;-115.362;2022-08-21T00:07:01;7.30;;;5.70;;
74492;SDS011;62978;51.094;-115.362;2022-08-21T00:09:52;6.80;;;5.30;;
74492;SDS011;62978;51.094;-115.362;2022-08-21T00:12:39;8.30;;;6.10;;
74492;SDS011;62978;51.094;-115.362;2022-08-21T00:16:00;7.80;;;5.80;;
74492;SDS011;62978;51.094;-115.362;2022-08-21T00:22:18;7.20;;;5.90;;
74492;SDS011;62978;51.094;-115.362;2022-08-21T00:28:56;7.10;;;5.50;;
74492;SDS011;62978;51.094;-115.362;2022-08-21T00:34:57;8.90;;;7.00;;
74492;SDS011;62978;51.094;-115.362;2022-08-21T00:37:27;8.60;;;6.40;;
74492;SDS011;62978;51.094;-115.362;2022-08-21T00:43:51;8.00;;;6.20;;
74492;SDS011;62978;51.094;-115.362;2022-08-21T00:46:40;8.40;;;6.90;;
74492;SDS011;62978;51.094;-115.362;2022-08-21T00:49:09;10.30;;;7.10;;
74492;SDS011;62978;51.094;-115.362;2022-08-21T00:55:11;10.20;;;7.20;;
74492;SDS011;62978;51.094;-115.362;2022-08-21T01:01:18;9.90;;;6.90;;
74492;SDS011;62978;51.094;-115.362;2022-08-21T01:04:04;9.80;;;7.20;;
74492;SDS011;62978;51.094;-115.362;2022-08-21T01:06:49;8.80;;;6.40;;
74492;SDS011;62978;51.094;-115.362;2022-08-21T01:13:09;9.80;;;6.50;;
74492;SDS011;62978;51.094;-115.362;2022-08-21T01:18:52;9.90;;;6.50;;
74492;SDS011;62978;51.094;-115.362;2022-08-21T01:22:09;8.40;;;6.10;;
74492;SDS011;62978;51.094;-115.362;2022-08-21T01:24:44;8.30;;;6.10;;
74492;SDS011;62978;51.094;-115.362;2022-08-21T01:27:29;8.50;;;7.20;;
74492;SDS011;62978;51.094;-115.362;2022-08-21T01:30:12;7.80;;;6.00;;
74492;SDS011;62978;51.094;-115.362;2022-08-21T01:32:55;8.90;;;6.40;;
74492;SDS011;62978;51.094;-115.362;2022-08-21T01:35:36;9.50;;;5.90;;
74492;SDS011;62978;51.094;-115.362;2022-08-21T01:41:57;8.30;;;5.20;;
74492;SDS011;62978;51.094;-115.362;2022-08-21T01:44:26;9.60;;;5.70;;
74492;SDS011;62978;51.094;-115.362;2022-08-21T01:49:54;8.30;;;5.90;;
74492;SDS011;62978;51.094;-115.362;2022-08-21T01:52:25;9.80;;;6.50;;
74492;SDS011;62978;51.094;-115.362;2022-08-21T01:55:12;9.50;;;5.70;;
74492;SDS011;62978;51.094;-115.362;2022-08-21T01:57:49;10.70;;;5.60;;
74492;SDS011;62978;51.094;-115.362;2022-08-21T02:00:20;8.80;;;6.00;;
74492;SDS011;62978;51.094;-115.362;2022-08-21T02:03:08;10.50;;;6.20;;
74492;SDS011;62978;51.094;-115.362;2022-08-21T02:05:46;10.40;;;6.20;;
74492;SDS011;62978;51.094;-115.362;2022-08-21T02:08:17;12.40;;;6.10;;
74492;SDS011;62978;51.094;-115.362;2022-08-21T02:10:47;11.10;;;6.50;;
74492;SDS011;62978;51.094;-115.362;2022-08-21T02:13:21;12.90;;;6.40;;
74492;SDS011;62978;51.094;-115.362;2022-08-21T02:15:57;13.10;;;5.70;;
74492;SDS011;62978;51.094;-115.362;2022-08-21T02:18:25;10.50;;;6.50;;
74492;SDS011;62978;51.094;-115.362;2022-08-21T02:20:52;17.20;;;6.80;;
74492;SDS011;62978;51.094;-115.362;2022-08-21T02:23:20;10.20;;;6.50;;
74492;SDS011;62978;51.094;-115.362;2022-08-21T02:25:47;13.40;;;6.10;;
74492;SDS011;62978;51.094;-115.362;2022-08-21T02:28:15;13.60;;;6.30;;
74492;SDS011;62978;51.094;-115.362;2022-08-21T02:31:04;16.70;;;6.50;;
74492;SDS011;62978;51.094;-115.362;2022-08-21T02:33:32;12.00;;;6.60;;
74492;SDS011;62978;51.094;-115.362;2022-08-21T02:36:00;8.80;;;6.10;;
74492;SDS011;62978;51.094;-115.362;2022-08-21T02:38:33;9.60;;;6.60;;
74492;SDS011;62978;51.094;-115.362;2022-08-21T02:41:08;10.40;;;6.10;;
74492;SDS011;62978;51.094;-115.362;2022-08-21T02:43:46;11.00;;;6.50;;
74492;SDS011;62978;51.094;-115.362;2022-08-21T02:46:18;9.10;;;6.20;;
74492;SDS011;62978;51.094;-115.362;2022-08-21T02:49:11;12.70;;;6.70;;
74492;SDS011;62978;51.094;-115.362;2022-08-21T02:51:48;13.30;;;6.40;;
74492;SDS011;62978;51.094;-115.362;2022-08-21T02:54:16;12.70;;;6.50;;
74492;SDS011;62978;51.094;-115.362;2022-08-21T02:56:52;11.70;;;7.80;;
74492;SDS011;62978;51.094;-115.362;2022-08-21T02:59:23;10.80;;;6.40;;
74492;SDS011;62978;51.094;-115.362;2022-08-21T03:04:55;11.40;;;6.50;;
74492;SDS011;62978;51.094;-115.362;2022-08-21T03:07:28;11.00;;;6.70;;
74492;SDS011;62978;51.094;-115.362;2022-08-21T03:10:08;8.80;;;6.50;;
74492;SDS011;62978;51.094;-115.362;2022-08-21T03:12:51;10.60;;;6.80;;
74492;SDS011;62978;51.094;-115.362;2022-08-21T03:15:35;10.50;;;7.10;;
74492;SDS011;62978;51.094;-115.362;2022-08-21T03:18:20;12.50;;;7.30;;
74492;SDS011;62978;51.094;-115.362;2022-08-21T03:21:12;11.30;;;7.00;;
74492;SDS011;62978;51.094;-115.362;2022-08-21T03:27:28;13.60;;;7.90;;
74492;SDS011;62978;51.094;-115.362;2022-08-21T03:30:21;12.20;;;7.00;;
74492;SDS011;62978;51.094;-115.362;2022-08-21T03:36:30;12.50;;;7.70;;
74492;SDS011;62978;51.094;-115.362;2022-08-21T03:39:08;11.90;;;7.20;;
74492;SDS011;62978;51.094;-115.362;2022-08-21T03:41:38;15.00;;;7.60;;
74492;SDS011;62978;51.094;-115.362;2022-08-21T03:44:15;12.30;;;7.40;;
74492;SDS011;62978;51.094;-115.362;2022-08-21T03:47:23;12.10;;;7.50;;
74492;SDS011;62978;51.094;-115.362;2022-08-21T03:49:51;11.30;;;7.80;;
74492;SDS011;62978;51.094;-115.362;2022-08-21T03:52:20;11.30;;;7.40;;
74492;SDS011;62978;51.094;-115.362;2022-08-21T03:54:47;10.50;;;7.20;;
74492;SDS011;62978;51.094;-115.362;2022-08-21T03:57:27;10.00;;;6.90;;
74492;SDS011;62978;51.094;-115.362;2022-08-21T03:59:56;12.40;;;7.90;;
74492;SDS011;62978;51.094;-115.362;2022-08-21T04:05:24;13.00;;;7.30;;
74492;SDS011;62978;51.094;-115.362;2022-08-21T04:08:02;14.60;;;7.30;;
74492;SDS011;62978;51.094;-115.362;2022-08-21T04:10:33;11.30;;;7.30;;
74492;SDS011;62978;51.094;-115.362;2022-08-21T04:13:04;12.40;;;7.50;;
74492;SDS011;62978;51.094;-115.362;2022-08-21T04:15:32;10.10;;;7.10;;
74492;SDS011;62978;51.094;-115.362;2022-08-21T04:18:04;10.60;;;7.20;;
74492;SDS011;62978;51.094;-115.362;2022-08-21T04:20:32;10.50;;;7.60;;
74492;SDS011;62978;51.094;-115.362;2022-08-21T04:23:04;10.90;;;7.30;;
74492;SDS011;62978;51.094;-115.362;2022-08-21T04:25:36;9.90;;;7.20;;
74492;SDS011;62978;51.094;-115.362;2022-08-21T04:28:04;14.00;;;7.50;;
74492;SDS011;62978;51.094;-115.362;2022-08-21T04:30:31;12.60;;;6.80;;
74492;SDS011;62978;51.094;-115.362;2022-08-21T04:33:00;10.90;;;6.90;;
74492;SDS011;62978;51.094;-115.362;2022-08-21T04:35:28;10.50;;;7.00;;
74492;SDS011;62978;51.094;-115.362;2022-08-21T04:37:56;10.70;;;7.80;;
74492;SDS011;62978;51.094;-115.362;2022-08-21T04:40:31;10.90;;;7.30;;
74492;SDS011;62978;51.094;-115.362;2022-08-21T04:43:05;10.50;;;7.20;;
74492;SDS011;62978;51.094;-115.362;2022-08-21T04:45:42;10.00;;;7.10;;
74492;SDS011;62978;51.094;-115.362;2022-08-21T04:48:13;12.30;;;7.30;;
74492;SDS011;62978;51.094;-115.362;2022-08-21T04:53:41;14.90;;;7.10;;
74492;SDS011;62978;51.094;-115.362;2022-08-21T04:56:29;12.50;;;7.00;;
74492;SDS011;62978;51.094;-115.362;2022-08-21T04:59:17;12.90;;;7.10;;
74492;SDS011;62978;51.094;-115.362;2022-08-21T05:01:49;12.20;;;7.40;;
74492;SDS011;62978;51.094;-115.362;2022-08-21T05:04:22;15.00;;;7.50;;
74492;SDS011;62978;51.094;-115.362;2022-08-21T05:06:55;10.50;;;7.10;;
74492;SDS011;62978;51.094;-115.362;2022-08-21T05:09:26;14.60;;;7.40;;
74492;SDS011;62978;51.094;-115.362;2022-08-21T05:11:55;13.40;;;7.40;;
74492;SDS011;62978;51.094;-115.362;2022-08-21T05:14:24;12.10;;;7.10;;
74492;SDS011;62978;51.094;-115.362;2022-08-21T05:16:59;16.60;;;7.50;;
74492;SDS011;62978;51.094;-115.362;2022-08-21T05:19:26;11.80;;;6.60;;
74492;SDS011;62978;51.094;-115.362;2022-08-21T05:21:57;14.60;;;7.70;;
74492;SDS011;62978;51.094;-115.362;2022-08-21T05:24:25;16.50;;;7.60;;
74492;SDS011;62978;51.094;-115.362;2022-08-21T05:26:53;15.90;;;7.30;;
74492;SDS011;62978;51.094;-115.362;2022-08-21T05:29:21;12.80;;;7.40;;
74492;SDS011;62978;51.094;-115.362;2022-08-21T05:31:48;12.00;;;7.00;;
74492;SDS011;62978;51.094;-115.362;2022-08-21T05:34:21;13.20;;;7.80;;
74492;SDS011;62978;51.094;-115.362;2022-08-21T05:36:49;10.90;;;7.20;;
74492;SDS011;62978;51.094;-115.362;2022-08-21T05:39:17;11.30;;;6.90;;
74492;SDS011;62978;51.094;-115.362;2022-08-21T05:41:47;10.80;;;6.60;;
74492;SDS011;62978;51.094;-115.362;2022-08-21T05:44:15;14.30;;;7.10;;
74492;SDS011;62978;51.094;-115.362;2022-08-21T05:46:42;11.90;;;6.90;;
74492;SDS011;62978;51.094;-115.362;2022-08-21T05:49:10;11.50;;;7.00;;
74492;SDS011;62978;51.094;-115.362;2022-08-21T05:51:40;12.60;;;6.90;;
74492;SDS011;62978;51.094;-115.362;2022-08-21T05:54:08;14.60;;;7.80;;
74492;SDS011;62978;51.094;-115.362;2022-08-21T05:56:37;13.50;;;6.80;;
74492;SDS011;62978;51.094;-115.362;2022-08-21T05:59:05;12.60;;;7.60;;
74492;SDS011;62978;51.094;-115.362;2022-08-21T06:01:33;12.70;;;7.60;;
74492;SDS011;62978;51.094;-115.362;2022-08-21T06:04:00;12.10;;;6.70;;
74492;SDS011;62978;51.094;-115.362;2022-08-21T06:06:27;10.90;;;7.20;;
74492;SDS011;62978;51.094;-115.362;2022-08-21T06:08:58;13.40;;;7.90;;
74492;SDS011;62978;51.094;-115.362;2022-08-21T06:11:25;13.30;;;7.70;;
74492;SDS011;62978;51.094;-115.362;2022-08-21T06:13:52;13.70;;;7.30;;
74492;SDS011;62978;51.094;-115.362;2022-08-21T06:16:19;12.20;;;7.60;;
74492;SDS011;62978;51.094;-115.362;2022-08-21T06:18:47;12.30;;;7.30;;
74492;SDS011;62978;51.094;-115.362;2022-08-21T06:21:15;13.60;;;7.50;;
74492;SDS011;62978;51.094;-115.362;2022-08-21T06:23:45;11.70;;;7.80;;
74492;SDS011;62978;51.094;-115.362;2022-08-21T06:26:14;11.20;;;7.60;;
74492;SDS011;62978;51.094;-115.362;2022-08-21T06:28:42;13.60;;;8.40;;
74492;SDS011;62978;51.094;-115.362;2022-08-21T06:31:14;13.40;;;8.00;;
74492;SDS011;62978;51.094;-115.362;2022-08-21T06:33:47;11.40;;;7.50;;
74492;SDS011;62978;51.094;-115.362;2022-08-21T06:36:15;15.00;;;8.70;;
74492;SDS011;62978;51.094;-115.362;2022-08-21T06:38:42;12.60;;;7.80;;
74492;SDS011;62978;51.094;-115.362;2022-08-21T06:41:14;11.50;;;7.80;;
74492;SDS011;62978;51.094;-115.362;2022-08-21T06:43:41;12.70;;;7.80;;
74492;SDS011;62978;51.094;-115.362;2022-08-21T06:46:08;13.40;;;7.30;;
74492;SDS011;62978;51.094;-115.362;2022-08-21T06:48:47;14.40;;;8.60;;
74492;SDS011;62978;51.094;-115.362;2022-08-21T06:51:15;11.40;;;7.10;;
74492;SDS011;62978;51.094;-115.362;2022-08-21T06:53:43;12.40;;;8.10;;
74492;SDS011;62978;51.094;-115.362;2022-08-21T06:56:14;12.90;;;8.40;;
74492;SDS011;62978;51.094;-115.362;2022-08-21T06:58:41;14.60;;;9.00;;
74492;SDS011;62978;51.094;-115.362;2022-08-21T07:01:09;14.00;;;7.90;;
74492;SDS011;62978;51.094;-115.362;2022-08-21T07:03:45;11.20;;;7.50;;
74492;SDS011;62978;51.094;-115.362;2022-08-21T07:06:12;12.90;;;8.10;;
74492;SDS011;62978;51.094;-115.362;2022-08-21T07:08:39;11.10;;;8.30;;
74492;SDS011;62978;51.094;-115.362;2022-08-21T07:11:18;13.30;;;7.70;;
74492;SDS011;62978;51.094;-115.362;2022-08-21T07:13:48;10.80;;;7.70;;
74492;SDS011;62978;51.094;-115.362;2022-08-21T07:16:22;13.80;;;8.80;;
74492;SDS011;62978;51.094;-115.362;2022-08-21T07:18:50;14.80;;;8.80;;
74492;SDS011;62978;51.094;-115.362;2022-08-21T07:21:17;13.10;;;7.50;;
74492;SDS011;62978;51.094;-115.362;2022-08-21T07:23:48;10.70;;;8.00;;
74492;SDS011;62978;51.094;-115.362;2022-08-21T07:26:20;14.10;;;8.50;;
74492;SDS011;62978;51.094;-115.362;2022-08-21T07:29:05;13.10;;;8.10;;
74492;SDS011;62978;51.094;-115.362;2022-08-21T07:31:32;11.40;;;8.30;;
74492;SDS011;62978;51.094;-115.362;2022-08-21T07:34:00;12.40;;;8.60;;
74492;SDS011;62978;51.094;-115.362;2022-08-21T07:36:28;11.90;;;7.90;;
74492;SDS011;62978;51.094;-115.362;2022-08-21T07:38:55;13.30;;;9.00;;
74492;SDS011;62978;51.094;-115.362;2022-08-21T07:41:28;13.70;;;8.50;;
74492;SDS011;62978;51.094;-115.362;2022-08-21T07:43:56;11.90;;;7.40;;
74492;SDS011;62978;51.094;-115.362;2022-08-21T07:49:38;11.70;;;7.80;;
74492;SDS011;62978;51.094;-115.362;2022-08-21T07:52:05;14.10;;;8.10;;
74492;SDS011;62978;51.094;-115.362;2022-08-21T07:54:36;16.20;;;8.00;;
74492;SDS011;62978;51.094;-115.362;2022-08-21T07:57:13;11.10;;;8.00;;
74492;SDS011;62978;51.094;-115.362;2022-08-21T07:59:40;13.50;;;8.20;;
74492;SDS011;62978;51.094;-115.362;2022-08-21T08:02:07;13.00;;;8.00;;
74492;SDS011;62978;51.094;-115.362;2022-08-21T08:04:38;12.90;;;8.80;;
74492;SDS011;62978;51.094;-115.362;2022-08-21T08:07:09;11.50;;;7.70;;
74492;SDS011;62978;51.094;-115.362;2022-08-21T08:09:37;11.40;;;7.80;;
74492;SDS011;62978;51.094;-115.362;2022-08-21T08:12:04;15.50;;;8.40;;
74492;SDS011;62978;51.094;-115.362;2022-08-21T08:14:35;12.70;;;8.50;;
74492;SDS011;62978;51.094;-115.362;2022-08-21T08:17:03;11.50;;;8.10;;
74492;SDS011;62978;51.094;-115.362;2022-08-21T08:19:33;12.00;;;7.60;;
74492;SDS011;62978;51.094;-115.362;2022-08-21T08:22:00;11.20;;;7.70;;
74492;SDS011;62978;51.094;-115.362;2022-08-21T08:24:28;12.50;;;8.20;;
74492;SDS011;62978;51.094;-115.362;2022-08-21T08:26:55;11.30;;;7.70;;
74492;SDS011;62978;51.094;-115.362;2022-08-21T08:29:33;11.80;;;7.80;;
74492;SDS011;62978;51.094;-115.362;2022-08-21T08:32:01;13.40;;;7.60;;
74492;SDS011;62978;51.094;-115.362;2022-08-21T08:34:29;13.20;;;7.80;;
74492;SDS011;62978;51.094;-115.362;2022-08-21T08:36:56;11.50;;;7.70;;
74492;SDS011;62978;51.094;-115.362;2022-08-21T08:39:25;14.50;;;8.20;;
74492;SDS011;62978;51.094;-115.362;2022-08-21T08:42:08;12.80;;;8.00;;
74492;SDS011;62978;51.094;-115.362;2022-08-21T08:44:43;11.50;;;7.70;;
74492;SDS011;62978;51.094;-115.362;2022-08-21T08:47:16;13.20;;;8.50;;
74492;SDS011;62978;51.094;-115.362;2022-08-21T08:50:07;14.60;;;8.80;;
74492;SDS011;62978;51.094;-115.362;2022-08-21T08:53:07;11.40;;;7.90;;
74492;SDS011;62978;51.094;-115.362;2022-08-21T08:55:46;10.80;;;8.00;;
74492;SDS011;62978;51.094;-115.362;2022-08-21T08:58:28;13.40;;;7.20;;
74492;SDS011;62978;51.094;-115.362;2022-08-21T09:01:16;15.50;;;8.60;;
74492;SDS011;62978;51.094;-115.362;2022-08-21T09:03:49;10.30;;;7.80;;
74492;SDS011;62978;51.094;-115.362;2022-08-21T09:06:36;12.40;;;7.70;;
74492;SDS011;62978;51.094;-115.362;2022-08-21T09:09:11;13.30;;;8.50;;
74492;SDS011;62978;51.094;-115.362;2022-08-21T09:12:09;12.20;;;7.60;;
74492;SDS011;62978;51.094;-115.362;2022-08-21T09:15:09;13.70;;;7.80;;
74492;SDS011;62978;51.094;-115.362;2022-08-21T09:26:59;14.70;;;8.30;;
74492;SDS011;62978;51.094;-115.362;2022-08-21T09:29:47;11.70;;;8.00;;
74492;SDS011;62978;51.094;-115.362;2022-08-21T09:35:06;15.50;;;8.40;;
74492;SDS011;62978;51.094;-115.362;2022-08-21T09:40:46;11.00;;;7.40;;
74492;SDS011;62978;51.094;-115.362;2022-08-21T09:43:24;10.70;;;7.10;;
74492;SDS011;62978;51.094;-115.362;2022-08-21T09:46:04;12.00;;;8.60;;
74492;SDS011;62978;51.094;-115.362;2022-08-21T09:48:47;11.60;;;7.40;;
74492;SDS011;62978;51.094;-115.362;2022-08-21T09:51:22;10.60;;;8.20;;
74492;SDS011;62978;51.094;-115.362;2022-08-21T09:54:15;12.60;;;7.50;;
74492;SDS011;62978;51.094;-115.362;2022-08-21T09:56:59;11.50;;;7.40;;
74492;SDS011;62978;51.094;-115.362;2022-08-21T10:00:10;13.50;;;8.00;;
74492;SDS011;62978;51.094;-115.362;2022-08-21T10:02:47;10.90;;;7.90;;
74492;SDS011;62978;51.094;-115.362;2022-08-21T10:05:32;12.50;;;7.80;;
74492;SDS011;62978;51.094;-115.362;2022-08-21T10:08:01;13.50;;;7.90;;
74492;SDS011;62978;51.094;-115.362;2022-08-21T10:10:32;12.80;;;7.90;;
74492;SDS011;62978;51.094;-115.362;2022-08-21T10:13:12;11.50;;;7.70;;
74492;SDS011;62978;51.094;-115.362;2022-08-21T10:24:37;14.80;;;8.50;;
74492;SDS011;62978;51.094;-115.362;2022-08-21T10:27:28;14.00;;;8.30;;
74492;SDS011;62978;51.094;-115.362;2022-08-21T10:31:03;9.90;;;7.50;;
74492;SDS011;62978;51.094;-115.362;2022-08-21T10:36:24;10.30;;;6.60;;
74492;SDS011;62978;51.094;-115.362;2022-08-21T10:45:02;11.80;;;7.90;;
74492;SDS011;62978;51.094;-115.362;2022-08-21T10:47:48;12.80;;;8.00;;
74492;SDS011;62978;51.094;-115.362;2022-08-21T10:50:48;12.90;;;8.50;;
74492;SDS011;62978;51.094;-115.362;2022-08-21T10:56:33;14.00;;;8.80;;
74492;SDS011;62978;51.094;-115.362;2022-08-21T11:02:37;13.30;;;8.70;;
74492;SDS011;62978;51.094;-115.362;2022-08-21T11:08:23;11.30;;;7.70;;
74492;SDS011;62978;51.094;-115.362;2022-08-21T11:14:13;12.10;;;7.60;;
74492;SDS011;62978;51.094;-115.362;2022-08-21T11:17:12;13.40;;;8.10;;
74492;SDS011;62978;51.094;-115.362;2022-08-21T11:22:58;11.30;;;6.80;;
74492;SDS011;62978;51.094;-115.362;2022-08-21T11:25:45;11.80;;;9.10;;
74492;SDS011;62978;51.094;-115.362;2022-08-21T11:29:02;13.50;;;9.00;;
74492;SDS011;62978;51.094;-115.362;2022-08-21T11:41:13;12.90;;;8.50;;
74492;SDS011;62978;51.094;-115.362;2022-08-21T11:47:11;12.00;;;9.00;;
74492;SDS011;62978;51.094;-115.362;2022-08-21T11:50:23;11.20;;;8.40;;
74492;SDS011;62978;51.094;-115.362;2022-08-21T11:53:11;10.30;;;7.80;;
74492;SDS011;62978;51.094;-115.362;2022-08-21T11:56:16;12.20;;;9.00;;
74492;SDS011;62978;51.094;-115.362;2022-08-21T11:58:54;10.90;;;6.90;;
74492;SDS011;62978;51.094;-115.362;2022-08-21T12:01:39;12.00;;;8.60;;
74492;SDS011;62978;51.094;-115.362;2022-08-21T12:04:28;13.30;;;7.90;;
74492;SDS011;62978;51.094;-115.362;2022-08-21T12:07:32;13.40;;;8.20;;
74492;SDS011;62978;51.094;-115.362;2022-08-21T12:10:12;12.80;;;8.90;;
74492;SDS011;62978;51.094;-115.362;2022-08-21T12:13:06;14.00;;;10.60;;
74492;SDS011;62978;51.094;-115.362;2022-08-21T12:16:06;10.60;;;8.20;;
74492;SDS011;62978;51.094;-115.362;2022-08-21T12:18:37;13.20;;;8.70;;
74492;SDS011;62978;51.094;-115.362;2022-08-21T12:21:24;11.30;;;7.80;;
74492;SDS011;62978;51.094;-115.362;2022-08-21T12:29:33;13.40;;;8.70;;
74492;SDS011;62978;51.094;-115.362;2022-08-21T12:35:02;15.10;;;9.70;;
74492;SDS011;62978;51.094;-115.362;2022-08-21T12:37:52;13.00;;;9.30;;
74492;SDS011;62978;51.094;-115.362;2022-08-21T12:40:39;12.60;;;9.10;;
74492;SDS011;62978;51.094;-115.362;2022-08-21T12:43:20;12.70;;;9.30;;
74492;SDS011;62978;51.094;-115.362;2022-08-21T12:45:55;12.90;;;8.90;;
74492;SDS011;62978;51.094;-115.362;2022-08-21T12:51:41;16.70;;;10.00;;
74492;SDS011;62978;51.094;-115.362;2022-08-21T12:54:26;13.40;;;8.30;;
74492;SDS011;62978;51.094;-115.362;2022-08-21T12:56:57;14.20;;;9.20;;
74492;SDS011;62978;51.094;-115.362;2022-08-21T12:59:27;14.00;;;8.70;;
74492;SDS011;62978;51.094;-115.362;2022-08-21T13:01:58;11.20;;;7.70;;
74492;SDS011;62978;51.094;-115.362;2022-08-21T13:04:41;12.70;;;8.90;;
74492;SDS011;62978;51.094;-115.362;2022-08-21T13:07:12;12.30;;;8.80;;
74492;SDS011;62978;51.094;-115.362;2022-08-21T13:09:52;11.60;;;8.50;;
74492;SDS011;62978;51.094;-115.362;2022-08-21T13:12:23;11.80;;;8.70;;
74492;SDS011;62978;51.094;-115.362;2022-08-21T13:14:52;12.40;;;8.90;;
74492;SDS011;62978;51.094;-115.362;2022-08-21T13:17:31;13.90;;;9.70;;
74492;SDS011;62978;51.094;-115.362;2022-08-21T13:20:20;13.20;;;9.80;;
74492;SDS011;62978;51.094;-115.362;2022-08-21T13:22:51;14.00;;;8.20;;
74492;SDS011;62978;51.094;-115.362;2022-08-21T13:25:20;9.60;;;5.80;;
74492;SDS011;62978;51.094;-115.362;2022-08-21T13:28:10;10.90;;;7.60;;
74492;SDS011;62978;51.094;-115.362;2022-08-21T13:33:27;12.20;;;8.80;;
74492;SDS011;62978;51.094;-115.362;2022-08-21T13:36:25;13.80;;;9.70;;
74492;SDS011;62978;51.094;-115.362;2022-08-21T13:38:53;11.30;;;8.40;;
74492;SDS011;62978;51.094;-115.362;2022-08-21T13:41:24;10.80;;;8.60;;
74492;SDS011;62978;51.094;-115.362;2022-08-21T13:44:06;12.20;;;8.40;;
74492;SDS011;62978;51.094;-115.362;2022-08-21T13:46:43;11.60;;;7.00;;
74492;SDS011;62978;51.094;-115.362;2022-08-21T13:49:14;11.00;;;7.30;;
74492;SDS011;62978;51.094;-115.362;2022-08-21T13:51:45;12.60;;;9.10;;
74492;SDS011;62978;51.094;-115.362;2022-08-21T13:54:34;14.90;;;8.50;;
74492;SDS011;62978;51.094;-115.362;2022-08-21T13:57:04;12.50;;;8.40;;
74492;SDS011;62978;51.094;-115.362;2022-08-21T13:59:41;12.50;;;8.30;;
74492;SDS011;62978;51.094;-115.362;2022-08-21T14:02:19;14.90;;;9.70;;
74492;SDS011;62978;51.094;-115.362;2022-08-21T14:05:00;13.40;;;9.60;;
74492;SDS011;62978;51.094;-115.362;2022-08-21T14:07:36;12.80;;;10.00;;
74492;SDS011;62978;51.094;-115.362;2022-08-21T14:10:18;12.90;;;9.20;;
74492;SDS011;62978;51.094;-115.362;2022-08-21T14:12:54;12.00;;;9.30;;
74492;SDS011;62978;51.094;-115.362;2022-08-21T14:15:26;11.90;;;8.90;;
74492;SDS011;62978;51.094;-115.362;2022-08-21T14:18:13;14.30;;;10.00;;
74492;SDS011;62978;51.094;-115.362;2022-08-21T14:20:44;12.80;;;9.50;;
74492;SDS011;62978;51.094;-115.362;2022-08-21T14:23:12;15.50;;;10.40;;
74492;SDS011;62978;51.094;-115.362;2022-08-21T14:25:59;13.60;;;9.00;;
74492;SDS011;62978;51.094;-115.362;2022-08-21T14:28:34;11.20;;;8.30;;
74492;SDS011;62978;51.094;-115.362;2022-08-21T14:31:18;10.70;;;7.80;;
74492;SDS011;62978;51.094;-115.362;2022-08-21T14:33:48;14.30;;;9.40;;
74492;SDS011;62978;51.094;-115.362;2022-08-21T14:36:15;12.90;;;9.10;;
74492;SDS011;62978;51.094;-115.362;2022-08-21T14:38:43;15.30;;;11.40;;
74492;SDS011;62978;51.094;-115.362;2022-08-21T14:41:19;11.00;;;8.70;;
74492;SDS011;62978;51.094;-115.362;2022-08-21T14:43:53;12.80;;;9.10;;
74492;SDS011;62978;51.094;-115.362;2022-08-21T14:46:31;11.50;;;8.10;;
74492;SDS011;62978;51.094;-115.362;2022-08-21T14:49:00;12.70;;;10.10;;
74492;SDS011;62978;51.094;-115.362;2022-08-21T14:51:31;13.20;;;9.30;;
74492;SDS011;62978;51.094;-115.362;2022-08-21T14:53:59;13.60;;;9.40;;
74492;SDS011;62978;51.094;-115.362;2022-08-21T14:56:27;11.30;;;8.70;;
74492;SDS011;62978;51.094;-115.362;2022-08-21T14:58:56;12.10;;;8.90;;
74492;SDS011;62978;51.094;-115.362;2022-08-21T15:01:34;14.80;;;10.80;;
74492;SDS011;62978;51.094;-115.362;2022-08-21T15:04:11;14.10;;;9.50;;
74492;SDS011;62978;51.094;-115.362;2022-08-21T15:06:41;13.80;;;10.60;;
74492;SDS011;62978;51.094;-115.362;2022-08-21T15:09:08;13.60;;;10.30;;
74492;SDS011;62978;51.094;-115.362;2022-08-21T15:11:36;14.40;;;9.50;;
74492;SDS011;62978;51.094;-115.362;2022-08-21T15:14:06;15.20;;;10.60;;
74492;SDS011;62978;51.094;-115.362;2022-08-21T15:16:37;14.50;;;10.50;;
74492;SDS011;62978;51.094;-115.362;2022-08-21T15:19:07;13.00;;;9.10;;
74492;SDS011;62978;51.094;-115.362;2022-08-21T15:21:38;11.30;;;9.10;;
74492;SDS011;62978;51.094;-115.362;2022-08-21T15:24:05;12.60;;;9.50;;
74492;SDS011;62978;51.094;-115.362;2022-08-21T15:26:33;13.30;;;8.80;;
74492;SDS011;62978;51.094;-115.362;2022-08-21T15:32:23;12.50;;;9.50;;
74492;SDS011;62978;51.094;-115.362;2022-08-21T15:34:57;11.00;;;8.90;;
74492;SDS011;62978;51.094;-115.362;2022-08-21T15:37:25;12.40;;;10.10;;
74492;SDS011;62978;51.094;-115.362;2022-08-21T15:39:53;12.80;;;9.00;;
74492;SDS011;62978;51.094;-115.362;2022-08-21T15:42:21;11.60;;;8.30;;
74492;SDS011;62978;51.094;-115.362;2022-08-21T15:44:54;11.40;;;8.10;;
74492;SDS011;62978;51.094;-115.362;2022-08-21T15:47:28;12.50;;;8.40;;
74492;SDS011;62978;51.094;-115.362;2022-08-21T15:50:04;11.90;;;8.60;;
74492;SDS011;62978;51.094;-115.362;2022-08-21T15:52:34;12.10;;;9.20;;
74492;SDS011;62978;51.094;-115.362;2022-08-21T15:55:02;12.90;;;9.00;;
74492;SDS011;62978;51.094;-115.362;2022-08-21T15:57:37;13.20;;;7.90;;
74492;SDS011;62978;51.094;-115.362;2022-08-21T16:03:49;11.10;;;7.20;;
74492;SDS011;62978;51.094;-115.362;2022-08-21T16:06:18;10.00;;;7.30;;
74492;SDS011;62978;51.094;-115.362;2022-08-21T16:08:49;11.20;;;7.50;;
74492;SDS011;62978;51.094;-115.362;2022-08-21T16:11:23;12.20;;;8.50;;
74492;SDS011;62978;51.094;-115.362;2022-08-21T16:13:55;13.10;;;8.90;;
74492;SDS011;62978;51.094;-115.362;2022-08-21T16:19:44;11.50;;;7.90;;
74492;SDS011;62978;51.094;-115.362;2022-08-21T16:22:17;11.50;;;7.90;;
74492;SDS011;62978;51.094;-115.362;2022-08-21T16:24:54;12.20;;;7.70;;
74492;SDS011;62978;51.094;-115.362;2022-08-21T16:27:22;11.10;;;8.10;;
74492;SDS011;62978;51.094;-115.362;2022-08-21T16:29:49;9.80;;;7.50;;
74492;SDS011;62978;51.094;-115.362;2022-08-21T16:32:17;10.50;;;7.40;;
74492;SDS011;62978;51.094;-115.362;2022-08-21T16:34:47;10.10;;;8.10;;
74492;SDS011;62978;51.094;-115.362;2022-08-21T16:37:15;11.30;;;8.20;;
74492;SDS011;62978;51.094;-115.362;2022-08-21T16:39:47;11.10;;;8.20;;
74492;SDS011;62978;51.094;-115.362;2022-08-21T16:42:18;11.30;;;8.40;;
74492;SDS011;62978;51.094;-115.362;2022-08-21T16:48:14;11.40;;;8.10;;
74492;SDS011;62978;51.094;-115.362;2022-08-21T16:50:52;11.60;;;8.00;;
74492;SDS011;62978;51.094;-115.362;2022-08-21T16:53:26;10.70;;;7.50;;
74492;SDS011;62978;51.094;-115.362;2022-08-21T16:55:57;10.90;;;7.50;;
74492;SDS011;62978;51.094;-115.362;2022-08-21T16:58:34;12.50;;;7.10;;
74492;SDS011;62978;51.094;-115.362;2022-08-21T17:01:10;8.30;;;6.80;;
74492;SDS011;62978;51.094;-115.362;2022-08-21T17:03:45;10.80;;;7.10;;
74492;SDS011;62978;51.094;-115.362;2022-08-21T17:06:17;8.90;;;6.60;;
74492;SDS011;62978;51.094;-115.362;2022-08-21T17:08:51;7.80;;;6.10;;
74492;SDS011;62978;51.094;-115.362;2022-08-21T17:11:35;12.00;;;7.60;;